Weather reports worldwide

Advertisment
Molina De Aragon, Spain (8232): temperature & dewpoint: 20.09.2018 05:00:00 - 26.09.2018 05:00:00 (CEST)Molina De Aragon, Spain (8232): wind speed: 20.09.2018 05:00:00 - 26.09.2018 05:00:00 (CEST)Molina De Aragon, Spain (8232): wind direction: 20.09.2018 05:00:00 - 26.09.2018 05:00:00 (CEST)Molina De Aragon, Spain (8232): visibility: 20.09.2018 05:00:00 - 26.09.2018 05:00:00 (CEST)Molina De Aragon, Spain (8232): precipitation: 20.09.2018 05:00:00 - 26.09.2018 05:00:00 (CEST)
Date & Time tt [°C] td [°C] ff [km/h] ff [kn] dd vv [km] rr [mm]
26.09.2018 05:00:00 12,4 10,6 4 2 ESE 20 -
26.09.2018 04:00:00 12,6 10,7 0 0 N 20 0,0
26.09.2018 03:00:00 13,1 10,8 2 1 ESE 20 0,0
26.09.2018 02:00:00 14,0 10,4 2 1 ESE 20 -
26.09.2018 01:00:00 14,2 9,8 2 1 ESE 20 0,0
26.09.2018 00:00:00 14,9 9,5 2 1 NNW 20 0,0
25.09.2018 23:00:00 15,1 7,1 4 2 E 20 -
25.09.2018 22:00:00 15,4 6,7 4 2 NNE 20 0,0
25.09.2018 21:00:00 16,9 6,7 5 3 NNE 20 0,0
25.09.2018 20:00:00 19,5 7,2 4 2 NNE 17 -
25.09.2018 19:00:00 23,3 9,3 5 3 NNE 18 0,0
25.09.2018 18:00:00 24,9 11,1 8 4 NNE 20 0,0
25.09.2018 17:00:00 25,5 12,3 8 4 NNE 20 -
25.09.2018 16:00:00 27,2 12,8 5 3 NNE 20 0,0
25.09.2018 15:00:00 26,3 12,0 5 3 N 20 0,0
25.09.2018 14:00:00 24,6 10,8 4 2 NNE 20 -
25.09.2018 13:00:00 22,4 9,9 4 2 NNE 20 0,0
25.09.2018 12:00:00 19,8 8,5 5 3 N 20 0,0
25.09.2018 11:00:00 16,2 7,4 5 3 NNE 20 -
25.09.2018 10:00:00 10,9 7,2 4 2 SSW 20 0,0
25.09.2018 09:00:00 6,9 5,4 2 1 SE 20 0,0
25.09.2018 08:00:00 6,1 4,6 2 1 NNE 20 -
25.09.2018 07:00:00 6,5 4,7 4 2 ESE 20 0,0
25.09.2018 06:00:00 6,9 4,9 2 1 E 20 0,0
25.09.2018 05:00:00 7,6 5,4 2 1 E 20 -
25.09.2018 04:00:00 8,5 5,9 2 1 E 20 0,0
25.09.2018 03:00:00 9,2 6,5 2 1 NNE 20 0,0
25.09.2018 02:00:00 10,3 7,0 2 1 ESE 20 -
25.09.2018 01:00:00 11,5 7,6 2 1 E 20 0,0
25.09.2018 00:00:00 13,3 8,4 2 1 ESE 20 0,0
24.09.2018 23:00:00 15,2 8,4 2 1 NNE 20 -
24.09.2018 22:00:00 17,1 9,8 2 1 E 20 0,0
24.09.2018 21:00:00 19,3 11,3 4 2 NNE 20 0,0
24.09.2018 20:00:00 22,2 11,3 5 3 N 13 -
24.09.2018 19:00:00 25,2 12,4 8 4 N 17 0,0
24.09.2018 18:00:00 26,5 13,3 9 5 N 20 0,0
24.09.2018 17:00:00 26,8 14,2 5 3 NNE 20 -
24.09.2018 16:00:00 26,4 14,5 8 4 N 20 0,0
24.09.2018 15:00:00 25,7 13,9 4 2 NE 20 0,0
24.09.2018 14:00:00 25,0 14,5 5 3 N 20 -
24.09.2018 13:00:00 23,7 13,6 5 3 NE 20 0,0
24.09.2018 12:00:00 22,5 14,3 4 2 NNE 20 0,0
24.09.2018 11:00:00 19,8 13,7 5 3 SE 20 -
24.09.2018 10:00:00 17,0 13,3 5 3 ESE 20 0,0
24.09.2018 09:00:00 11,7 10,9 2 1 NE 20 0,0
24.09.2018 08:00:00 10,8 9,4 2 1 NNE 20 -
24.09.2018 07:00:00 11,1 9,5 0 0 N 20 0,0
24.09.2018 06:00:00 11,5 9,9 2 1 ENE 20 0,0
24.09.2018 05:00:00 11,9 10,1 2 1 NE 20 -
24.09.2018 04:00:00 12,4 10,5 0 0 N 20 0,0
24.09.2018 03:00:00 13,0 10,2 2 1 E 20 0,0
24.09.2018 02:00:00 13,6 10,0 2 1 E 20 -
24.09.2018 01:00:00 14,7 10,5 2 1 E 20 0,0
24.09.2018 00:00:00 15,9 10,2 0 0 N 20 0,0
23.09.2018 23:00:00 17,4 9,8 4 2 E 20 -
23.09.2018 22:00:00 18,4 9,7 2 1 NNE 20 0,0
23.09.2018 21:00:00 21,2 9,4 2 1 NE 20 0,0
23.09.2018 20:00:00 25,3 9,6 2 1 NNE 13 -
23.09.2018 19:00:00 28,2 9,5 8 4 NNW 20 0,0
23.09.2018 18:00:00 29,6 7,5 8 4 WNW 20 0,0
23.09.2018 17:00:00 30,5 11,0 5 3 W 20 -
23.09.2018 16:00:00 29,7 9,8 5 3 WNW 20 0,0
23.09.2018 15:00:00 29,2 9,8 8 4 W 20 0,0
23.09.2018 14:00:00 28,7 10,8 4 2 WSW 20 -
23.09.2018 13:00:00 26,7 10,0 5 3 WNW 20 0,0
23.09.2018 12:00:00 22,4 11,5 2 1 WSW 20 0,0
23.09.2018 11:00:00 18,3 11,8 2 1 SW 20 -
23.09.2018 10:00:00 14,5 11,5 2 1 S 20 0,0
23.09.2018 09:00:00 10,3 9,2 2 1 SSE 20 0,0
23.09.2018 08:00:00 9,6 8,2 2 1 SE 18 -
23.09.2018 07:00:00 10,0 8,4 2 1 ENE 20 0,0
23.09.2018 06:00:00 10,5 8,8 0 0 N 20 0,0
23.09.2018 05:00:00 11,0 9,1 0 0 N 20 -
23.09.2018 04:00:00 11,6 9,2 0 0 N 20 0,0
23.09.2018 03:00:00 12,2 9,6 2 1 ENE 20 0,0
23.09.2018 02:00:00 12,9 9,9 2 1 E 20 -
23.09.2018 01:00:00 13,7 9,9 2 1 ENE 20 0,0
23.09.2018 00:00:00 14,6 10,2 2 1 ESE 20 0,0
22.09.2018 23:00:00 16,1 10,2 2 1 E 20 -
22.09.2018 22:00:00 17,8 10,7 2 1 ENE 20 0,0
22.09.2018 21:00:00 20,6 10,1 2 1 NE 20 0,0
22.09.2018 20:00:00 24,1 9,7 5 3 N 18 -
22.09.2018 19:00:00 27,0 10,2 4 2 WNW 20 0,0
22.09.2018 18:00:00 28,6 10,3 8 4 WNW 20 0,0
22.09.2018 17:00:00 28,8 10,5 4 2 W 20 -
22.09.2018 16:00:00 28,5 11,1 5 3 NW 20 0,0
22.09.2018 15:00:00 27,8 10,0 9 5 WNW 20 0,0
22.09.2018 14:00:00 27,2 12,0 8 4 W 20 -
22.09.2018 13:00:00 25,8 13,3 5 3 W 20 0,0
22.09.2018 12:00:00 22,7 14,5 2 1 SSW 20 0,0
22.09.2018 11:00:00 18,3 12,5 2 1 SE 20 -
22.09.2018 10:00:00 14,3 11,6 2 1 S 20 0,0
22.09.2018 09:00:00 10,9 10,0 2 1 E 20 0,0
22.09.2018 08:00:00 10,3 9,1 2 1 ESE 20 -
22.09.2018 07:00:00 10,8 9,4 2 1 E 19 0,0
22.09.2018 06:00:00 11,3 9,7 2 1 E 19 0,0
22.09.2018 05:00:00 11,9 10,1 2 1 ESE 20 -
22.09.2018 04:00:00 12,7 10,8 2 1 ENE 20 0,0
22.09.2018 03:00:00 13,4 10,6 2 1 ESE 20 0,0
22.09.2018 02:00:00 14,7 11,1 2 1 NNE 20 -
22.09.2018 01:00:00 16,2 11,4 4 2 E 20 0,0
22.09.2018 00:00:00 16,5 11,8 2 1 NNE 20 0,0
21.09.2018 23:00:00 17,2 12,5 2 1 NE 19 -
21.09.2018 22:00:00 18,0 12,2 2 1 E 20 0,0
21.09.2018 21:00:00 20,2 11,9 2 1 ESE 20 0,0
21.09.2018 20:00:00 23,4 11,1 4 2 NNE 20 -
21.09.2018 19:00:00 25,5 11,3 4 2 NNE 20 0,0
21.09.2018 18:00:00 26,3 11,2 4 2 NE 20 0,0
21.09.2018 17:00:00 26,8 10,5 5 3 NW 20 -
21.09.2018 16:00:00 27,6 10,8 9 5 WNW 20 0,0
21.09.2018 15:00:00 27,5 11,1 5 3 WNW 20 0,0
21.09.2018 14:00:00 27,1 11,9 5 3 NW 20 -
21.09.2018 13:00:00 25,4 12,3 5 3 ESE 14 0,0
21.09.2018 12:00:00 22,7 13,5 2 1 W 20 0,0
21.09.2018 11:00:00 18,4 12,4 2 1 W 20 -
21.09.2018 10:00:00 14,4 12,3 4 2 WSW 20 0,0
21.09.2018 09:00:00 11,1 10,5 4 2 S 19 0,0
21.09.2018 08:00:00 10,3 9,2 0 0 N 13 -
21.09.2018 07:00:00 10,7 9,8 2 1 ESE 17 0,0
21.09.2018 06:00:00 11,1 9,8 0 0 N 16 0,0
21.09.2018 05:00:00 11,6 10,3 2 1 ESE 16 -
21.09.2018 04:00:00 12,1 10,7 0 0 N 16 0,0
21.09.2018 03:00:00 12,7 11,1 0 0 N 19 0,0
21.09.2018 02:00:00 13,5 11,5 0 0 N 20 -
21.09.2018 01:00:00 14,5 12,4 2 1 E 20 0,0
21.09.2018 00:00:00 15,7 12,8 2 1 E 20 0,0
20.09.2018 23:00:00 17,3 13,4 4 2 ESE 20 -
20.09.2018 22:00:00 18,2 14,9 2 1 NE 20 0,0
20.09.2018 21:00:00 19,3 15,0 5 3 NNE 20 0,0
20.09.2018 20:00:00 21,5 15,1 4 2 ESE 20 -
20.09.2018 19:00:00 23,4 12,7 9 5 ESE 20 0,0
20.09.2018 18:00:00 26,1 13,2 8 4 SE 20 0,0
20.09.2018 17:00:00 26,8 12,1 9 5 SW 20 -
20.09.2018 16:00:00 26,5 12,9 9 5 WSW 20 0,0
20.09.2018 15:00:00 28,3 12,2 5 3 S 20 0,0
20.09.2018 14:00:00 27,1 12,0 4 2 NNE 20 -
20.09.2018 13:00:00 25,5 15,2 4 2 SW 20 0,0
20.09.2018 12:00:00 22,2 13,8 2 1 W 3,5 0,0
20.09.2018 11:00:00 18,0 13,7 4 2 SW 20 -
20.09.2018 10:00:00 14,6 12,6 2 1 W 20 0,0
20.09.2018 09:00:00 11,6 11,0 2 1 SSE 17 0,0
20.09.2018 08:00:00 11,0 9,9 0 0 N 13 -
20.09.2018 07:00:00 11,6 10,5 2 1 ESE 16 0,0
20.09.2018 06:00:00 11,8 10,7 2 1 ESE 19 0,0
20.09.2018 05:00:00 12,2 10,8 2 1 E 14 -

tt = temperature
td = dewpoint
ff = wind speed
dd = wind direction
vv = visibility
rr = precipitation

Next stations